sensor_id;sensor_type;location;lat;lon;timestamp;temperature;humidity
7472;DHT22;3777;48.722;8.110;2023-05-10T00:02:01;14.90;99.90
7472;DHT22;3777;48.722;8.110;2023-05-10T00:04:28;14.90;99.90
7472;DHT22;3777;48.722;8.110;2023-05-10T00:06:56;14.90;99.90
7472;DHT22;3777;48.722;8.110;2023-05-10T00:09:23;14.90;99.90
7472;DHT22;3777;48.722;8.110;2023-05-10T00:11:50;14.90;99.90
7472;DHT22;3777;48.722;8.110;2023-05-10T00:14:17;15.00;99.90
7472;DHT22;3777;48.722;8.110;2023-05-10T00:16:44;15.00;99.90
7472;DHT22;3777;48.722;8.110;2023-05-10T00:19:11;15.00;99.90
7472;DHT22;3777;48.722;8.110;2023-05-10T00:21:38;15.00;99.90
7472;DHT22;3777;48.722;8.110;2023-05-10T00:24:07;15.00;99.90
7472;DHT22;3777;48.722;8.110;2023-05-10T00:26:33;15.10;99.90
7472;DHT22;3777;48.722;8.110;2023-05-10T00:29:00;15.10;99.90
7472;DHT22;3777;48.722;8.110;2023-05-10T00:31:27;15.10;99.90
7472;DHT22;3777;48.722;8.110;2023-05-10T00:33:55;15.10;99.90
7472;DHT22;3777;48.722;8.110;2023-05-10T00:36:22;15.20;99.90
7472;DHT22;3777;48.722;8.110;2023-05-10T00:38:49;15.20;99.90
7472;DHT22;3777;48.722;8.110;2023-05-10T00:41:17;15.30;99.90
7472;DHT22;3777;48.722;8.110;2023-05-10T00:43:44;15.20;99.90
7472;DHT22;3777;48.722;8.110;2023-05-10T00:46:11;15.20;99.90
7472;DHT22;3777;48.722;8.110;2023-05-10T00:48:38;15.30;99.90
7472;DHT22;3777;48.722;8.110;2023-05-10T00:51:05;15.30;99.90
7472;DHT22;3777;48.722;8.110;2023-05-10T00:53:34;15.40;99.90
7472;DHT22;3777;48.722;8.110;2023-05-10T00:56:01;15.40;99.90
7472;DHT22;3777;48.722;8.110;2023-05-10T00:58:30;15.40;99.90
7472;DHT22;3777;48.722;8.110;2023-05-10T01:00:57;15.30;99.90
7472;DHT22;3777;48.722;8.110;2023-05-10T01:03:25;15.30;99.90
7472;DHT22;3777;48.722;8.110;2023-05-10T01:05:52;15.30;99.90
7472;DHT22;3777;48.722;8.110;2023-05-10T01:08:19;15.30;99.90
7472;DHT22;3777;48.722;8.110;2023-05-10T01:10:46;15.30;99.90
7472;DHT22;3777;48.722;8.110;2023-05-10T01:13:23;15.30;99.90
7472;DHT22;3777;48.722;8.110;2023-05-10T01:15:55;15.30;99.90
7472;DHT22;3777;48.722;8.110;2023-05-10T01:18:23;15.30;99.90
7472;DHT22;3777;48.722;8.110;2023-05-10T01:20:59;15.30;99.90
7472;DHT22;3777;48.722;8.110;2023-05-10T01:23:51;15.30;99.90
7472;DHT22;3777;48.722;8.110;2023-05-10T01:26:51;15.40;99.90
7472;DHT22;3777;48.722;8.110;2023-05-10T01:29:44;15.40;99.90
7472;DHT22;3777;48.722;8.110;2023-05-10T01:32:26;15.50;99.90
7472;DHT22;3777;48.722;8.110;2023-05-10T01:34:59;15.50;99.90
7472;DHT22;3777;48.722;8.110;2023-05-10T01:37:33;15.60;99.90
7472;DHT22;3777;48.722;8.110;2023-05-10T01:40:08;15.60;99.90
7472;DHT22;3777;48.722;8.110;2023-05-10T01:42:40;15.60;99.90
7472;DHT22;3777;48.722;8.110;2023-05-10T01:45:17;15.60;99.90
7472;DHT22;3777;48.722;8.110;2023-05-10T01:47:48;15.60;99.90
7472;DHT22;3777;48.722;8.110;2023-05-10T01:50:19;15.50;99.90
7472;DHT22;3777;48.722;8.110;2023-05-10T01:52:55;15.50;99.90
7472;DHT22;3777;48.722;8.110;2023-05-10T01:55:25;15.60;99.90
7472;DHT22;3777;48.722;8.110;2023-05-10T01:57:59;15.60;99.90
7472;DHT22;3777;48.722;8.110;2023-05-10T02:00:27;15.60;99.90
7472;DHT22;3777;48.722;8.110;2023-05-10T02:02:57;15.60;99.90
7472;DHT22;3777;48.722;8.110;2023-05-10T02:05:24;15.60;99.90
7472;DHT22;3777;48.722;8.110;2023-05-10T02:07:51;15.60;99.90
7472;DHT22;3777;48.722;8.110;2023-05-10T02:10:19;15.60;99.90
7472;DHT22;3777;48.722;8.110;2023-05-10T02:12:48;15.60;99.90
7472;DHT22;3777;48.722;8.110;2023-05-10T02:15:22;15.60;99.90
7472;DHT22;3777;48.722;8.110;2023-05-10T02:17:50;15.50;99.90
7472;DHT22;3777;48.722;8.110;2023-05-10T02:20:19;15.40;99.90
7472;DHT22;3777;48.722;8.110;2023-05-10T02:22:49;15.40;99.90
7472;DHT22;3777;48.722;8.110;2023-05-10T02:25:18;15.40;99.90
7472;DHT22;3777;48.722;8.110;2023-05-10T02:27:47;15.50;99.90
7472;DHT22;3777;48.722;8.110;2023-05-10T02:30:15;15.50;99.90
7472;DHT22;3777;48.722;8.110;2023-05-10T02:32:43;15.50;99.90
7472;DHT22;3777;48.722;8.110;2023-05-10T02:35:11;15.50;99.90
7472;DHT22;3777;48.722;8.110;2023-05-10T02:37:40;15.40;99.90
7472;DHT22;3777;48.722;8.110;2023-05-10T02:40:08;15.40;99.90
7472;DHT22;3777;48.722;8.110;2023-05-10T02:42:38;15.40;99.90
7472;DHT22;3777;48.722;8.110;2023-05-10T02:45:11;15.40;99.90
7472;DHT22;3777;48.722;8.110;2023-05-10T02:47:38;15.40;99.90
7472;DHT22;3777;48.722;8.110;2023-05-10T02:50:06;15.40;99.90
7472;DHT22;3777;48.722;8.110;2023-05-10T02:52:42;15.20;99.90
7472;DHT22;3777;48.722;8.110;2023-05-10T02:55:11;15.20;99.90
7472;DHT22;3777;48.722;8.110;2023-05-10T02:57:45;15.20;99.90
7472;DHT22;3777;48.722;8.110;2023-05-10T03:00:14;15.10;99.90
7472;DHT22;3777;48.722;8.110;2023-05-10T03:02:41;15.10;99.90
7472;DHT22;3777;48.722;8.110;2023-05-10T03:05:08;15.10;99.90
7472;DHT22;3777;48.722;8.110;2023-05-10T03:07:35;15.00;99.90
7472;DHT22;3777;48.722;8.110;2023-05-10T03:10:05;15.00;99.90
7472;DHT22;3777;48.722;8.110;2023-05-10T03:12:41;14.90;99.90
7472;DHT22;3777;48.722;8.110;2023-05-10T03:15:19;14.70;99.90
7472;DHT22;3777;48.722;8.110;2023-05-10T03:17:55;14.60;99.90
7472;DHT22;3777;48.722;8.110;2023-05-10T03:20:25;14.60;99.90
7472;DHT22;3777;48.722;8.110;2023-05-10T03:22:58;14.70;99.90
7472;DHT22;3777;48.722;8.110;2023-05-10T03:25:29;14.80;99.90
7472;DHT22;3777;48.722;8.110;2023-05-10T03:27:58;14.90;99.90
7472;DHT22;3777;48.722;8.110;2023-05-10T03:30:28;14.90;99.90
7472;DHT22;3777;48.722;8.110;2023-05-10T03:32:55;15.00;99.90
7472;DHT22;3777;48.722;8.110;2023-05-10T03:35:23;15.10;99.90
7472;DHT22;3777;48.722;8.110;2023-05-10T03:37:50;15.10;99.90
7472;DHT22;3777;48.722;8.110;2023-05-10T03:40:17;15.10;99.90
7472;DHT22;3777;48.722;8.110;2023-05-10T03:42:46;15.10;99.90
7472;DHT22;3777;48.722;8.110;2023-05-10T03:45:12;15.10;99.90
7472;DHT22;3777;48.722;8.110;2023-05-10T03:47:42;15.10;99.90
7472;DHT22;3777;48.722;8.110;2023-05-10T03:50:09;15.10;99.90
7472;DHT22;3777;48.722;8.110;2023-05-10T03:52:36;15.10;99.90
7472;DHT22;3777;48.722;8.110;2023-05-10T03:55:05;15.00;99.90
7472;DHT22;3777;48.722;8.110;2023-05-10T03:57:32;15.00;99.90
7472;DHT22;3777;48.722;8.110;2023-05-10T04:00:01;15.00;99.90
7472;DHT22;3777;48.722;8.110;2023-05-10T04:02:28;14.90;99.90
7472;DHT22;3777;48.722;8.110;2023-05-10T04:04:55;14.90;99.90
7472;DHT22;3777;48.722;8.110;2023-05-10T04:07:23;14.80;99.90
7472;DHT22;3777;48.722;8.110;2023-05-10T04:09:50;14.80;99.90
7472;DHT22;3777;48.722;8.110;2023-05-10T04:12:16;14.90;99.90
7472;DHT22;3777;48.722;8.110;2023-05-10T04:14:43;14.90;99.90
7472;DHT22;3777;48.722;8.110;2023-05-10T04:17:12;14.90;99.90
7472;DHT22;3777;48.722;8.110;2023-05-10T04:19:39;14.80;99.90
7472;DHT22;3777;48.722;8.110;2023-05-10T04:22:05;14.90;99.90
7472;DHT22;3777;48.722;8.110;2023-05-10T04:24:32;14.90;99.90
7472;DHT22;3777;48.722;8.110;2023-05-10T04:26:59;15.00;99.90
7472;DHT22;3777;48.722;8.110;2023-05-10T04:29:27;15.00;99.90
7472;DHT22;3777;48.722;8.110;2023-05-10T04:31:54;15.10;99.90
7472;DHT22;3777;48.722;8.110;2023-05-10T04:34:23;15.20;99.90
7472;DHT22;3777;48.722;8.110;2023-05-10T04:36:51;15.30;99.90
7472;DHT22;3777;48.722;8.110;2023-05-10T04:39:18;15.30;99.90
7472;DHT22;3777;48.722;8.110;2023-05-10T04:41:44;15.40;99.90
7472;DHT22;3777;48.722;8.110;2023-05-10T04:44:11;15.40;99.90
7472;DHT22;3777;48.722;8.110;2023-05-10T04:46:38;15.50;99.90
7472;DHT22;3777;48.722;8.110;2023-05-10T04:49:05;15.50;99.90
7472;DHT22;3777;48.722;8.110;2023-05-10T04:51:33;15.50;99.90
7472;DHT22;3777;48.722;8.110;2023-05-10T04:54:00;15.50;99.90
7472;DHT22;3777;48.722;8.110;2023-05-10T04:56:27;15.60;99.90
7472;DHT22;3777;48.722;8.110;2023-05-10T04:58:54;15.60;99.90
7472;DHT22;3777;48.722;8.110;2023-05-10T05:01:21;15.60;99.90
7472;DHT22;3777;48.722;8.110;2023-05-10T05:03:48;15.60;99.90
7472;DHT22;3777;48.722;8.110;2023-05-10T05:06:16;15.60;99.90
7472;DHT22;3777;48.722;8.110;2023-05-10T05:08:44;15.60;99.90
7472;DHT22;3777;48.722;8.110;2023-05-10T05:11:11;15.60;99.90
7472;DHT22;3777;48.722;8.110;2023-05-10T05:13:38;15.70;99.90
7472;DHT22;3777;48.722;8.110;2023-05-10T05:16:05;15.70;99.90
7472;DHT22;3777;48.722;8.110;2023-05-10T05:18:32;15.80;99.90
7472;DHT22;3777;48.722;8.110;2023-05-10T05:20:59;15.80;99.90
7472;DHT22;3777;48.722;8.110;2023-05-10T05:23:26;15.90;99.90
7472;DHT22;3777;48.722;8.110;2023-05-10T05:25:55;16.00;99.90
7472;DHT22;3777;48.722;8.110;2023-05-10T05:28:21;16.00;99.90
7472;DHT22;3777;48.722;8.110;2023-05-10T05:30:48;16.10;99.90
7472;DHT22;3777;48.722;8.110;2023-05-10T05:33:15;16.00;99.90
7472;DHT22;3777;48.722;8.110;2023-05-10T05:35:42;16.10;99.90
7472;DHT22;3777;48.722;8.110;2023-05-10T05:38:13;16.20;99.90
7472;DHT22;3777;48.722;8.110;2023-05-10T05:40:40;16.20;99.90
7472;DHT22;3777;48.722;8.110;2023-05-10T05:43:08;16.20;99.90
7472;DHT22;3777;48.722;8.110;2023-05-10T05:45:35;16.20;99.90
7472;DHT22;3777;48.722;8.110;2023-05-10T05:48:02;16.20;99.90
7472;DHT22;3777;48.722;8.110;2023-05-10T05:50:29;16.20;99.90
7472;DHT22;3777;48.722;8.110;2023-05-10T05:52:56;16.20;99.90
7472;DHT22;3777;48.722;8.110;2023-05-10T05:55:23;16.20;99.90
7472;DHT22;3777;48.722;8.110;2023-05-10T05:57:51;16.30;99.90
7472;DHT22;3777;48.722;8.110;2023-05-10T06:00:20;16.30;99.90
7472;DHT22;3777;48.722;8.110;2023-05-10T06:02:48;16.40;99.90
7472;DHT22;3777;48.722;8.110;2023-05-10T06:05:15;16.40;99.90
7472;DHT22;3777;48.722;8.110;2023-05-10T06:07:42;16.40;99.90
7472;DHT22;3777;48.722;8.110;2023-05-10T06:10:09;16.40;99.90
7472;DHT22;3777;48.722;8.110;2023-05-10T06:12:36;16.40;99.90
7472;DHT22;3777;48.722;8.110;2023-05-10T06:15:03;16.40;99.90
7472;DHT22;3777;48.722;8.110;2023-05-10T06:17:32;16.30;99.90
7472;DHT22;3777;48.722;8.110;2023-05-10T06:19:59;16.30;99.90
7472;DHT22;3777;48.722;8.110;2023-05-10T06:22:26;16.40;99.90
7472;DHT22;3777;48.722;8.110;2023-05-10T06:24:53;16.40;99.90
7472;DHT22;3777;48.722;8.110;2023-05-10T06:27:19;16.20;99.90
7472;DHT22;3777;48.722;8.110;2023-05-10T06:29:47;16.20;99.90
7472;DHT22;3777;48.722;8.110;2023-05-10T06:32:14;16.20;99.90
7472;DHT22;3777;48.722;8.110;2023-05-10T06:34:42;16.00;99.90
7472;DHT22;3777;48.722;8.110;2023-05-10T06:37:10;16.10;99.90
7472;DHT22;3777;48.722;8.110;2023-05-10T06:39:38;16.20;99.90
7472;DHT22;3777;48.722;8.110;2023-05-10T06:42:05;16.20;99.90
7472;DHT22;3777;48.722;8.110;2023-05-10T06:44:32;16.20;99.90
7472;DHT22;3777;48.722;8.110;2023-05-10T06:46:59;16.20;99.90
7472;DHT22;3777;48.722;8.110;2023-05-10T06:49:26;16.30;99.90
7472;DHT22;3777;48.722;8.110;2023-05-10T06:51:55;16.40;99.90
7472;DHT22;3777;48.722;8.110;2023-05-10T06:54:22;16.50;99.90
7472;DHT22;3777;48.722;8.110;2023-05-10T06:56:49;16.60;99.90
7472;DHT22;3777;48.722;8.110;2023-05-10T06:59:16;16.70;99.90
7472;DHT22;3777;48.722;8.110;2023-05-10T07:01:44;16.80;99.90
7472;DHT22;3777;48.722;8.110;2023-05-10T07:04:11;16.70;99.90
7472;DHT22;3777;48.722;8.110;2023-05-10T07:06:38;16.80;99.90
7472;DHT22;3777;48.722;8.110;2023-05-10T07:09:06;16.70;99.90
7472;DHT22;3777;48.722;8.110;2023-05-10T07:11:34;16.90;99.90
7472;DHT22;3777;48.722;8.110;2023-05-10T07:14:01;17.10;99.90
7472;DHT22;3777;48.722;8.110;2023-05-10T07:16:28;17.20;99.90
7472;DHT22;3777;48.722;8.110;2023-05-10T07:18:55;17.40;99.90
7472;DHT22;3777;48.722;8.110;2023-05-10T07:21:22;17.40;99.90
7472;DHT22;3777;48.722;8.110;2023-05-10T07:23:49;17.30;99.90
7472;DHT22;3777;48.722;8.110;2023-05-10T07:26:18;17.40;99.90
7472;DHT22;3777;48.722;8.110;2023-05-10T07:28:46;17.30;99.90
7472;DHT22;3777;48.722;8.110;2023-05-10T07:31:13;17.40;99.90
7472;DHT22;3777;48.722;8.110;2023-05-10T07:33:40;17.50;99.90
7472;DHT22;3777;48.722;8.110;2023-05-10T07:36:07;17.50;99.90
7472;DHT22;3777;48.722;8.110;2023-05-10T07:38:34;17.50;99.90
7472;DHT22;3777;48.722;8.110;2023-05-10T07:41:01;17.60;99.90
7472;DHT22;3777;48.722;8.110;2023-05-10T07:43:29;17.50;99.90
7472;DHT22;3777;48.722;8.110;2023-05-10T07:45:56;17.60;99.90
7472;DHT22;3777;48.722;8.110;2023-05-10T07:48:25;17.70;99.90
7472;DHT22;3777;48.722;8.110;2023-05-10T07:50:52;17.80;99.90
7472;DHT22;3777;48.722;8.110;2023-05-10T07:53:19;17.90;99.90
7472;DHT22;3777;48.722;8.110;2023-05-10T07:55:50;17.90;99.90
7472;DHT22;3777;48.722;8.110;2023-05-10T07:58:17;18.00;99.90
7472;DHT22;3777;48.722;8.110;2023-05-10T08:00:45;18.20;99.90
7472;DHT22;3777;48.722;8.110;2023-05-10T08:03:12;18.30;99.90
7472;DHT22;3777;48.722;8.110;2023-05-10T08:05:39;18.40;99.90
7472;DHT22;3777;48.722;8.110;2023-05-10T08:08:06;18.50;99.90
7472;DHT22;3777;48.722;8.110;2023-05-10T08:10:33;18.50;99.90
7472;DHT22;3777;48.722;8.110;2023-05-10T08:13:00;18.50;99.90
7472;DHT22;3777;48.722;8.110;2023-05-10T08:15:27;18.50;99.90
7472;DHT22;3777;48.722;8.110;2023-05-10T08:17:55;18.40;99.90
7472;DHT22;3777;48.722;8.110;2023-05-10T08:20:22;18.30;99.90
7472;DHT22;3777;48.722;8.110;2023-05-10T08:22:49;18.00;99.90
7472;DHT22;3777;48.722;8.110;2023-05-10T08:25:16;18.10;99.90
7472;DHT22;3777;48.722;8.110;2023-05-10T08:27:43;18.10;99.90
7472;DHT22;3777;48.722;8.110;2023-05-10T08:30:10;18.10;99.90
7472;DHT22;3777;48.722;8.110;2023-05-10T08:32:38;18.10;99.90
7472;DHT22;3777;48.722;8.110;2023-05-10T08:35:07;18.20;99.90
7472;DHT22;3777;48.722;8.110;2023-05-10T08:37:34;18.40;99.90
7472;DHT22;3777;48.722;8.110;2023-05-10T08:40:01;18.60;99.90
7472;DHT22;3777;48.722;8.110;2023-05-10T08:42:30;18.70;99.90
7472;DHT22;3777;48.722;8.110;2023-05-10T08:45:01;18.60;99.90
7472;DHT22;3777;48.722;8.110;2023-05-10T08:47:29;18.40;99.90
7472;DHT22;3777;48.722;8.110;2023-05-10T08:49:57;18.40;99.90
7472;DHT22;3777;48.722;8.110;2023-05-10T08:52:26;18.60;99.90
7472;DHT22;3777;48.722;8.110;2023-05-10T08:54:54;18.90;99.90
7472;DHT22;3777;48.722;8.110;2023-05-10T08:57:22;19.30;99.90
7472;DHT22;3777;48.722;8.110;2023-05-10T08:59:49;19.50;99.90
7472;DHT22;3777;48.722;8.110;2023-05-10T09:02:17;19.80;99.90
7472;DHT22;3777;48.722;8.110;2023-05-10T09:04:44;19.80;99.90
7472;DHT22;3777;48.722;8.110;2023-05-10T09:07:12;19.80;99.90
7472;DHT22;3777;48.722;8.110;2023-05-10T09:09:40;19.50;99.90
7472;DHT22;3777;48.722;8.110;2023-05-10T09:12:08;19.40;99.90
7472;DHT22;3777;48.722;8.110;2023-05-10T09:14:37;19.20;99.90
7472;DHT22;3777;48.722;8.110;2023-05-10T09:17:04;19.00;99.90
7472;DHT22;3777;48.722;8.110;2023-05-10T09:19:31;18.90;99.90
7472;DHT22;3777;48.722;8.110;2023-05-10T09:21:58;18.80;99.90
7472;DHT22;3777;48.722;8.110;2023-05-10T09:24:26;18.70;99.90
7472;DHT22;3777;48.722;8.110;2023-05-10T09:26:57;18.70;99.90
7472;DHT22;3777;48.722;8.110;2023-05-10T09:29:24;18.70;99.90
7472;DHT22;3777;48.722;8.110;2023-05-10T09:31:51;18.70;99.90
7472;DHT22;3777;48.722;8.110;2023-05-10T09:34:21;18.80;99.90
7472;DHT22;3777;48.722;8.110;2023-05-10T09:36:51;18.60;99.90
7472;DHT22;3777;48.722;8.110;2023-05-10T09:39:18;18.70;99.90
7472;DHT22;3777;48.722;8.110;2023-05-10T09:41:45;18.90;99.90
7472;DHT22;3777;48.722;8.110;2023-05-10T09:44:16;19.00;99.90
7472;DHT22;3777;48.722;8.110;2023-05-10T09:46:49;18.90;99.90
7472;DHT22;3777;48.722;8.110;2023-05-10T09:49:16;19.60;99.90
7472;DHT22;3777;48.722;8.110;2023-05-10T09:51:43;19.90;99.90
7472;DHT22;3777;48.722;8.110;2023-05-10T09:54:12;19.60;99.90
7472;DHT22;3777;48.722;8.110;2023-05-10T09:56:39;19.00;99.90
7472;DHT22;3777;48.722;8.110;2023-05-10T09:59:08;18.20;99.90
7472;DHT22;3777;48.722;8.110;2023-05-10T10:01:37;17.80;99.90
7472;DHT22;3777;48.722;8.110;2023-05-10T10:04:06;17.70;99.90
7472;DHT22;3777;48.722;8.110;2023-05-10T10:06:36;17.30;99.90
7472;DHT22;3777;48.722;8.110;2023-05-10T10:09:04;17.40;99.90
7472;DHT22;3777;48.722;8.110;2023-05-10T10:11:33;17.40;99.90
7472;DHT22;3777;48.722;8.110;2023-05-10T10:14:00;17.40;99.90
7472;DHT22;3777;48.722;8.110;2023-05-10T10:16:29;17.30;99.90
7472;DHT22;3777;48.722;8.110;2023-05-10T10:18:57;17.30;99.90
7472;DHT22;3777;48.722;8.110;2023-05-10T10:21:24;17.20;99.90
7472;DHT22;3777;48.722;8.110;2023-05-10T10:23:52;17.20;99.90
7472;DHT22;3777;48.722;8.110;2023-05-10T10:26:20;17.30;99.90
7472;DHT22;3777;48.722;8.110;2023-05-10T10:28:51;17.30;99.90
7472;DHT22;3777;48.722;8.110;2023-05-10T10:31:28;17.40;99.90
7472;DHT22;3777;48.722;8.110;2023-05-10T10:34:05;17.60;99.90
7472;DHT22;3777;48.722;8.110;2023-05-10T10:36:39;17.50;99.90
7472;DHT22;3777;48.722;8.110;2023-05-10T10:39:09;17.70;99.90
7472;DHT22;3777;48.722;8.110;2023-05-10T10:41:38;17.70;99.90
7472;DHT22;3777;48.722;8.110;2023-05-10T10:44:36;17.60;99.90
7472;DHT22;3777;48.722;8.110;2023-05-10T10:47:25;17.50;99.90
7472;DHT22;3777;48.722;8.110;2023-05-10T10:50:06;17.50;99.90
7472;DHT22;3777;48.722;8.110;2023-05-10T10:52:34;17.50;99.90
7472;DHT22;3777;48.722;8.110;2023-05-10T10:55:03;17.80;99.90
7472;DHT22;3777;48.722;8.110;2023-05-10T10:57:33;18.00;99.90
7472;DHT22;3777;48.722;8.110;2023-05-10T11:00:26;18.30;99.90
7472;DHT22;3777;48.722;8.110;2023-05-10T11:02:56;18.50;99.90
7472;DHT22;3777;48.722;8.110;2023-05-10T11:05:45;18.70;99.90
7472;DHT22;3777;48.722;8.110;2023-05-10T11:08:14;18.80;99.90
7472;DHT22;3777;48.722;8.110;2023-05-10T11:10:54;18.90;99.90
7472;DHT22;3777;48.722;8.110;2023-05-10T11:13:29;18.90;99.90
7472;DHT22;3777;48.722;8.110;2023-05-10T11:15:57;19.10;99.90
7472;DHT22;3777;48.722;8.110;2023-05-10T11:18:25;19.30;99.90
7472;DHT22;3777;48.722;8.110;2023-05-10T11:20:56;19.80;99.90
7472;DHT22;3777;48.722;8.110;2023-05-10T11:23:30;20.20;99.90
7472;DHT22;3777;48.722;8.110;2023-05-10T11:25:57;20.60;99.90
7472;DHT22;3777;48.722;8.110;2023-05-10T11:28:24;20.70;99.90
7472;DHT22;3777;48.722;8.110;2023-05-10T11:30:52;20.60;99.90
7472;DHT22;3777;48.722;8.110;2023-05-10T11:33:20;20.50;99.90
7472;DHT22;3777;48.722;8.110;2023-05-10T11:35:47;20.30;99.90
7472;DHT22;3777;48.722;8.110;2023-05-10T11:38:15;20.10;99.90
7472;DHT22;3777;48.722;8.110;2023-05-10T11:40:42;20.20;99.90
7472;DHT22;3777;48.722;8.110;2023-05-10T11:43:10;20.30;99.90
7472;DHT22;3777;48.722;8.110;2023-05-10T11:45:37;20.60;99.90
7472;DHT22;3777;48.722;8.110;2023-05-10T11:48:05;21.00;99.90
7472;DHT22;3777;48.722;8.110;2023-05-10T11:50:32;21.40;99.90
7472;DHT22;3777;48.722;8.110;2023-05-10T11:52:59;21.70;99.90
7472;DHT22;3777;48.722;8.110;2023-05-10T11:55:27;21.90;99.90
7472;DHT22;3777;48.722;8.110;2023-05-10T11:58:00;21.90;99.90
7472;DHT22;3777;48.722;8.110;2023-05-10T12:00:27;21.90;99.90
7472;DHT22;3777;48.722;8.110;2023-05-10T12:02:54;22.30;99.90
7472;DHT22;3777;48.722;8.110;2023-05-10T12:05:22;22.50;99.90
7472;DHT22;3777;48.722;8.110;2023-05-10T12:07:49;22.70;99.90
7472;DHT22;3777;48.722;8.110;2023-05-10T12:10:16;22.50;99.90
7472;DHT22;3777;48.722;8.110;2023-05-10T12:12:45;22.40;99.90
7472;DHT22;3777;48.722;8.110;2023-05-10T12:15:18;22.20;99.90
7472;DHT22;3777;48.722;8.110;2023-05-10T12:17:45;21.90;99.90
7472;DHT22;3777;48.722;8.110;2023-05-10T12:20:14;21.90;99.90
7472;DHT22;3777;48.722;8.110;2023-05-10T12:22:43;22.00;99.90
7472;DHT22;3777;48.722;8.110;2023-05-10T12:25:10;22.20;99.90
7472;DHT22;3777;48.722;8.110;2023-05-10T12:27:37;22.40;99.90
7472;DHT22;3777;48.722;8.110;2023-05-10T12:30:07;22.40;99.90
7472;DHT22;3777;48.722;8.110;2023-05-10T12:32:40;22.50;99.90
7472;DHT22;3777;48.722;8.110;2023-05-10T12:35:08;22.20;99.90
7472;DHT22;3777;48.722;8.110;2023-05-10T12:37:35;22.10;99.90
7472;DHT22;3777;48.722;8.110;2023-05-10T12:40:07;21.80;99.90
7472;DHT22;3777;48.722;8.110;2023-05-10T12:42:38;21.70;99.90
7472;DHT22;3777;48.722;8.110;2023-05-10T12:45:08;21.40;99.90
7472;DHT22;3777;48.722;8.110;2023-05-10T12:47:35;21.00;99.90
7472;DHT22;3777;48.722;8.110;2023-05-10T12:50:03;20.80;99.90
7472;DHT22;3777;48.722;8.110;2023-05-10T12:52:31;20.60;99.90
7472;DHT22;3777;48.722;8.110;2023-05-10T12:54:58;20.50;99.90
7472;DHT22;3777;48.722;8.110;2023-05-10T12:57:25;20.30;99.90
7472;DHT22;3777;48.722;8.110;2023-05-10T12:59:53;20.20;99.90
7472;DHT22;3777;48.722;8.110;2023-05-10T13:02:21;20.20;99.90
7472;DHT22;3777;48.722;8.110;2023-05-10T13:04:49;20.20;99.90
7472;DHT22;3777;48.722;8.110;2023-05-10T13:07:16;20.30;99.90
7472;DHT22;3777;48.722;8.110;2023-05-10T13:09:43;20.40;99.90
7472;DHT22;3777;48.722;8.110;2023-05-10T13:12:10;20.60;99.90
7472;DHT22;3777;48.722;8.110;2023-05-10T13:14:37;20.80;99.90
7472;DHT22;3777;48.722;8.110;2023-05-10T13:17:05;20.90;99.90
7472;DHT22;3777;48.722;8.110;2023-05-10T13:19:34;21.10;99.90
7472;DHT22;3777;48.722;8.110;2023-05-10T13:22:01;21.30;99.90
7472;DHT22;3777;48.722;8.110;2023-05-10T13:24:28;21.40;99.90
7472;DHT22;3777;48.722;8.110;2023-05-10T13:26:55;21.70;99.90
7472;DHT22;3777;48.722;8.110;2023-05-10T13:29:22;21.80;99.90
7472;DHT22;3777;48.722;8.110;2023-05-10T13:31:49;21.80;99.90
7472;DHT22;3777;48.722;8.110;2023-05-10T13:34:16;21.80;99.90
7472;DHT22;3777;48.722;8.110;2023-05-10T13:36:47;22.00;99.90
7472;DHT22;3777;48.722;8.110;2023-05-10T13:39:14;22.10;99.90
7472;DHT22;3777;48.722;8.110;2023-05-10T13:41:41;22.10;99.90
7472;DHT22;3777;48.722;8.110;2023-05-10T13:44:08;22.30;99.90
7472;DHT22;3777;48.722;8.110;2023-05-10T13:46:37;22.40;99.90
7472;DHT22;3777;48.722;8.110;2023-05-10T13:49:08;22.40;99.90
7472;DHT22;3777;48.722;8.110;2023-05-10T13:51:35;22.50;99.90
7472;DHT22;3777;48.722;8.110;2023-05-10T13:54:03;22.60;99.90
7472;DHT22;3777;48.722;8.110;2023-05-10T13:56:30;22.50;99.90
7472;DHT22;3777;48.722;8.110;2023-05-10T13:58:57;22.60;99.90
7472;DHT22;3777;48.722;8.110;2023-05-10T14:01:24;22.50;99.90
7472;DHT22;3777;48.722;8.110;2023-05-10T14:03:51;22.50;99.90
7472;DHT22;3777;48.722;8.110;2023-05-10T14:06:18;22.40;99.90
7472;DHT22;3777;48.722;8.110;2023-05-10T14:08:46;22.30;99.90
7472;DHT22;3777;48.722;8.110;2023-05-10T14:11:14;22.30;99.90
7472;DHT22;3777;48.722;8.110;2023-05-10T14:13:41;22.30;99.90
7472;DHT22;3777;48.722;8.110;2023-05-10T14:16:08;22.30;99.90
7472;DHT22;3777;48.722;8.110;2023-05-10T14:18:35;22.30;99.90
7472;DHT22;3777;48.722;8.110;2023-05-10T14:21:02;22.40;99.90
7472;DHT22;3777;48.722;8.110;2023-05-10T14:23:30;22.40;99.90
7472;DHT22;3777;48.722;8.110;2023-05-10T14:25:57;22.10;99.90
7472;DHT22;3777;48.722;8.110;2023-05-10T14:28:25;22.10;99.90
7472;DHT22;3777;48.722;8.110;2023-05-10T14:30:52;22.00;99.90
7472;DHT22;3777;48.722;8.110;2023-05-10T14:33:19;22.00;99.90
7472;DHT22;3777;48.722;8.110;2023-05-10T14:35:46;22.00;99.90
7472;DHT22;3777;48.722;8.110;2023-05-10T14:38:13;22.00;99.90
7472;DHT22;3777;48.722;8.110;2023-05-10T14:40:40;22.00;99.90
7472;DHT22;3777;48.722;8.110;2023-05-10T14:43:07;21.80;99.90
7472;DHT22;3777;48.722;8.110;2023-05-10T14:45:36;21.50;99.90
7472;DHT22;3777;48.722;8.110;2023-05-10T14:48:03;21.20;99.90
7472;DHT22;3777;48.722;8.110;2023-05-10T14:50:31;20.70;99.90
7472;DHT22;3777;48.722;8.110;2023-05-10T14:52:58;20.60;99.90
7472;DHT22;3777;48.722;8.110;2023-05-10T14:55:25;20.50;99.90
7472;DHT22;3777;48.722;8.110;2023-05-10T14:57:52;20.30;99.90
7472;DHT22;3777;48.722;8.110;2023-05-10T15:00:20;20.30;99.90
7472;DHT22;3777;48.722;8.110;2023-05-10T15:02:49;20.40;99.90
7472;DHT22;3777;48.722;8.110;2023-05-10T15:05:16;20.40;99.90
7472;DHT22;3777;48.722;8.110;2023-05-10T15:07:43;20.50;99.90
7472;DHT22;3777;48.722;8.110;2023-05-10T15:10:10;20.50;99.90
7472;DHT22;3777;48.722;8.110;2023-05-10T15:12:38;20.50;99.90
7472;DHT22;3777;48.722;8.110;2023-05-10T15:15:06;20.30;99.90
7472;DHT22;3777;48.722;8.110;2023-05-10T15:17:33;20.20;99.90
7472;DHT22;3777;48.722;8.110;2023-05-10T15:20:02;20.00;99.90
7472;DHT22;3777;48.722;8.110;2023-05-10T15:22:29;20.00;99.90
7472;DHT22;3777;48.722;8.110;2023-05-10T15:24:57;19.90;99.90
7472;DHT22;3777;48.722;8.110;2023-05-10T15:27:24;19.90;99.90
7472;DHT22;3777;48.722;8.110;2023-05-10T15:29:51;19.90;99.90
7472;DHT22;3777;48.722;8.110;2023-05-10T15:32:18;19.90;99.90
7472;DHT22;3777;48.722;8.110;2023-05-10T15:34:45;19.90;99.90
7472;DHT22;3777;48.722;8.110;2023-05-10T15:37:13;19.90;99.90
7472;DHT22;3777;48.722;8.110;2023-05-10T15:39:40;19.90;99.90
7472;DHT22;3777;48.722;8.110;2023-05-10T15:42:07;19.90;99.90
7472;DHT22;3777;48.722;8.110;2023-05-10T15:44:34;19.90;99.90
7472;DHT22;3777;48.722;8.110;2023-05-10T15:47:03;19.90;99.90
7472;DHT22;3777;48.722;8.110;2023-05-10T15:49:30;19.90;99.90
7472;DHT22;3777;48.722;8.110;2023-05-10T15:51:57;19.80;99.90
7472;DHT22;3777;48.722;8.110;2023-05-10T15:54:26;19.80;99.90
7472;DHT22;3777;48.722;8.110;2023-05-10T15:56:53;19.80;99.90
7472;DHT22;3777;48.722;8.110;2023-05-10T15:59:20;19.80;99.90
7472;DHT22;3777;48.722;8.110;2023-05-10T16:01:47;19.80;99.90
7472;DHT22;3777;48.722;8.110;2023-05-10T16:04:14;19.80;99.90
7472;DHT22;3777;48.722;8.110;2023-05-10T16:06:41;19.80;99.90
7472;DHT22;3777;48.722;8.110;2023-05-10T16:09:08;19.70;99.90
7472;DHT22;3777;48.722;8.110;2023-05-10T16:11:37;19.70;99.90